sensor_id;sensor_type;location;lat;lon;timestamp;temperature;humidity
5174;DHT22;2606;50.934;6.934;2023-02-01T00:00:05;7.10;99.90
5174;DHT22;2606;50.934;6.934;2023-02-01T00:02:30;7.10;99.90
5174;DHT22;2606;50.934;6.934;2023-02-01T00:04:56;7.10;99.90
5174;DHT22;2606;50.934;6.934;2023-02-01T00:07:22;7.10;99.90
5174;DHT22;2606;50.934;6.934;2023-02-01T00:09:47;7.10;99.90
5174;DHT22;2606;50.934;6.934;2023-02-01T00:12:13;7.10;99.90
5174;DHT22;2606;50.934;6.934;2023-02-01T00:14:38;7.10;99.90
5174;DHT22;2606;50.934;6.934;2023-02-01T00:17:08;7.00;99.90
5174;DHT22;2606;50.934;6.934;2023-02-01T00:19:34;7.00;99.90
5174;DHT22;2606;50.934;6.934;2023-02-01T00:22:00;7.00;99.90
5174;DHT22;2606;50.934;6.934;2023-02-01T00:24:25;7.00;99.90
5174;DHT22;2606;50.934;6.934;2023-02-01T00:26:51;6.90;99.90
5174;DHT22;2606;50.934;6.934;2023-02-01T00:29:19;6.90;99.90
5174;DHT22;2606;50.934;6.934;2023-02-01T00:31:45;6.90;99.90
5174;DHT22;2606;50.934;6.934;2023-02-01T00:34:15;6.90;99.90
5174;DHT22;2606;50.934;6.934;2023-02-01T00:36:42;6.80;99.90
5174;DHT22;2606;50.934;6.934;2023-02-01T00:39:08;6.80;99.90
5174;DHT22;2606;50.934;6.934;2023-02-01T00:41:34;6.80;99.90
5174;DHT22;2606;50.934;6.934;2023-02-01T00:44:00;6.80;99.90
5174;DHT22;2606;50.934;6.934;2023-02-01T00:46:27;6.70;99.90
5174;DHT22;2606;50.934;6.934;2023-02-01T00:48:52;6.70;99.90
5174;DHT22;2606;50.934;6.934;2023-02-01T00:51:22;6.70;99.90
5174;DHT22;2606;50.934;6.934;2023-02-01T00:53:48;6.70;99.90
5174;DHT22;2606;50.934;6.934;2023-02-01T00:56:14;6.70;99.90
5174;DHT22;2606;50.934;6.934;2023-02-01T00:58:39;6.70;99.90
5174;DHT22;2606;50.934;6.934;2023-02-01T01:01:06;6.60;99.90
5174;DHT22;2606;50.934;6.934;2023-02-01T01:03:34;6.70;99.90
5174;DHT22;2606;50.934;6.934;2023-02-01T01:06:02;6.60;99.90
5174;DHT22;2606;50.934;6.934;2023-02-01T01:08:28;6.60;99.90
5174;DHT22;2606;50.934;6.934;2023-02-01T01:10:54;6.60;99.90
5174;DHT22;2606;50.934;6.934;2023-02-01T01:13:20;6.60;99.90
5174;DHT22;2606;50.934;6.934;2023-02-01T01:15:45;6.60;99.90
5174;DHT22;2606;50.934;6.934;2023-02-01T01:18:11;6.60;99.90
5174;DHT22;2606;50.934;6.934;2023-02-01T01:20:38;6.60;99.90
5174;DHT22;2606;50.934;6.934;2023-02-01T01:23:05;6.60;99.90
5174;DHT22;2606;50.934;6.934;2023-02-01T01:25:31;6.50;99.90
5174;DHT22;2606;50.934;6.934;2023-02-01T01:27:57;6.50;99.90
5174;DHT22;2606;50.934;6.934;2023-02-01T01:30:22;6.50;99.90
5174;DHT22;2606;50.934;6.934;2023-02-01T01:32:48;6.50;99.90
5174;DHT22;2606;50.934;6.934;2023-02-01T01:35:14;6.50;99.90
5174;DHT22;2606;50.934;6.934;2023-02-01T01:37:39;6.40;99.90
5174;DHT22;2606;50.934;6.934;2023-02-01T01:40:08;6.40;99.90
5174;DHT22;2606;50.934;6.934;2023-02-01T01:42:39;6.40;99.90
5174;DHT22;2606;50.934;6.934;2023-02-01T01:48:21;6.40;99.90
5174;DHT22;2606;50.934;6.934;2023-02-01T01:51:05;6.40;99.90
5174;DHT22;2606;50.934;6.934;2023-02-01T01:53:42;6.40;99.90
5174;DHT22;2606;50.934;6.934;2023-02-01T01:56:09;6.40;99.90
5174;DHT22;2606;50.934;6.934;2023-02-01T01:58:35;6.40;99.90
5174;DHT22;2606;50.934;6.934;2023-02-01T02:01:00;6.40;99.90
5174;DHT22;2606;50.934;6.934;2023-02-01T02:03:40;6.30;99.90
5174;DHT22;2606;50.934;6.934;2023-02-01T02:09:00;6.30;99.90
5174;DHT22;2606;50.934;6.934;2023-02-01T02:11:25;6.30;99.90
5174;DHT22;2606;50.934;6.934;2023-02-01T02:13:54;6.30;99.90
5174;DHT22;2606;50.934;6.934;2023-02-01T02:16:41;6.30;99.90
5174;DHT22;2606;50.934;6.934;2023-02-01T02:34:05;6.30;99.90
5174;DHT22;2606;50.934;6.934;2023-02-01T02:45:07;6.40;99.90
5174;DHT22;2606;50.934;6.934;2023-02-01T02:48:08;6.40;99.90
5174;DHT22;2606;50.934;6.934;2023-02-01T02:50:48;6.40;99.90
5174;DHT22;2606;50.934;6.934;2023-02-01T02:53:59;6.40;99.90
5174;DHT22;2606;50.934;6.934;2023-02-01T02:56:44;6.50;99.90
5174;DHT22;2606;50.934;6.934;2023-02-01T02:59:28;6.50;99.90
5174;DHT22;2606;50.934;6.934;2023-02-01T03:02:15;6.40;99.90
5174;DHT22;2606;50.934;6.934;2023-02-01T03:04:59;6.50;99.90
5174;DHT22;2606;50.934;6.934;2023-02-01T03:12:50;6.50;99.90
5174;DHT22;2606;50.934;6.934;2023-02-01T03:18:48;6.50;99.90
5174;DHT22;2606;50.934;6.934;2023-02-01T03:20:55;6.50;99.90
5174;DHT22;2606;50.934;6.934;2023-02-01T03:23:26;6.50;99.90
5174;DHT22;2606;50.934;6.934;2023-02-01T03:25:54;6.50;99.90
5174;DHT22;2606;50.934;6.934;2023-02-01T03:28:23;6.50;99.90
5174;DHT22;2606;50.934;6.934;2023-02-01T03:30:49;6.50;99.90
5174;DHT22;2606;50.934;6.934;2023-02-01T03:33:18;6.50;99.90
5174;DHT22;2606;50.934;6.934;2023-02-01T03:38:32;6.60;99.90
5174;DHT22;2606;50.934;6.934;2023-02-01T03:41:08;6.60;99.90
5174;DHT22;2606;50.934;6.934;2023-02-01T03:43:44;6.60;99.90
5174;DHT22;2606;50.934;6.934;2023-02-01T03:46:19;6.60;99.90
5174;DHT22;2606;50.934;6.934;2023-02-01T03:48:46;6.60;99.90
5174;DHT22;2606;50.934;6.934;2023-02-01T03:51:13;6.60;99.90
5174;DHT22;2606;50.934;6.934;2023-02-01T03:53:40;6.60;99.90
5174;DHT22;2606;50.934;6.934;2023-02-01T03:56:07;6.50;99.90
5174;DHT22;2606;50.934;6.934;2023-02-01T03:58:33;6.50;99.90
5174;DHT22;2606;50.934;6.934;2023-02-01T04:01:00;6.60;99.90
5174;DHT22;2606;50.934;6.934;2023-02-01T04:03:27;6.50;99.90
5174;DHT22;2606;50.934;6.934;2023-02-01T04:05:53;6.50;99.90
5174;DHT22;2606;50.934;6.934;2023-02-01T04:08:20;6.50;99.90
5174;DHT22;2606;50.934;6.934;2023-02-01T04:10:46;6.50;99.90
5174;DHT22;2606;50.934;6.934;2023-02-01T04:13:12;6.50;99.90
5174;DHT22;2606;50.934;6.934;2023-02-01T04:15:37;6.50;99.90
5174;DHT22;2606;50.934;6.934;2023-02-01T04:18:03;6.50;99.90
5174;DHT22;2606;50.934;6.934;2023-02-01T04:20:29;6.50;99.90
5174;DHT22;2606;50.934;6.934;2023-02-01T04:22:55;6.50;99.90
5174;DHT22;2606;50.934;6.934;2023-02-01T04:25:20;6.50;99.90
5174;DHT22;2606;50.934;6.934;2023-02-01T04:27:46;6.50;99.90
5174;DHT22;2606;50.934;6.934;2023-02-01T04:30:13;6.50;99.90
5174;DHT22;2606;50.934;6.934;2023-02-01T04:33:00;6.50;99.90
5174;DHT22;2606;50.934;6.934;2023-02-01T04:35:41;6.50;99.90
5174;DHT22;2606;50.934;6.934;2023-02-01T04:38:06;6.50;99.90
5174;DHT22;2606;50.934;6.934;2023-02-01T04:40:32;6.50;99.90
5174;DHT22;2606;50.934;6.934;2023-02-01T04:42:58;6.50;99.90
5174;DHT22;2606;50.934;6.934;2023-02-01T04:45:24;6.50;99.90
5174;DHT22;2606;50.934;6.934;2023-02-01T04:47:49;6.40;99.90
5174;DHT22;2606;50.934;6.934;2023-02-01T04:50:15;6.40;99.90
5174;DHT22;2606;50.934;6.934;2023-02-01T04:52:41;6.40;99.90
5174;DHT22;2606;50.934;6.934;2023-02-01T04:55:07;6.40;99.90
5174;DHT22;2606;50.934;6.934;2023-02-01T04:57:32;6.40;99.90
5174;DHT22;2606;50.934;6.934;2023-02-01T04:59:58;6.30;99.90
5174;DHT22;2606;50.934;6.934;2023-02-01T05:02:23;6.30;99.90
5174;DHT22;2606;50.934;6.934;2023-02-01T05:04:49;6.30;99.90
5174;DHT22;2606;50.934;6.934;2023-02-01T05:07:15;6.30;99.90
5174;DHT22;2606;50.934;6.934;2023-02-01T05:09:41;6.20;99.90
5174;DHT22;2606;50.934;6.934;2023-02-01T05:12:09;6.20;99.90
5174;DHT22;2606;50.934;6.934;2023-02-01T05:14:53;6.20;99.90
5174;DHT22;2606;50.934;6.934;2023-02-01T05:17:19;6.20;99.90
5174;DHT22;2606;50.934;6.934;2023-02-01T05:19:44;6.20;99.90
5174;DHT22;2606;50.934;6.934;2023-02-01T05:22:10;6.20;99.90
5174;DHT22;2606;50.934;6.934;2023-02-01T05:24:35;6.20;99.90
5174;DHT22;2606;50.934;6.934;2023-02-01T05:27:01;6.10;99.90
5174;DHT22;2606;50.934;6.934;2023-02-01T05:29:27;6.20;99.90
5174;DHT22;2606;50.934;6.934;2023-02-01T05:31:52;6.10;99.90
5174;DHT22;2606;50.934;6.934;2023-02-01T05:34:18;6.10;99.90
5174;DHT22;2606;50.934;6.934;2023-02-01T05:36:44;6.10;99.90
5174;DHT22;2606;50.934;6.934;2023-02-01T05:39:09;6.10;99.90
5174;DHT22;2606;50.934;6.934;2023-02-01T05:41:35;6.10;99.90
5174;DHT22;2606;50.934;6.934;2023-02-01T05:44:01;6.10;99.90
5174;DHT22;2606;50.934;6.934;2023-02-01T05:46:26;6.00;99.90
5174;DHT22;2606;50.934;6.934;2023-02-01T05:48:52;6.00;99.90
5174;DHT22;2606;50.934;6.934;2023-02-01T05:51:17;6.00;99.90
5174;DHT22;2606;50.934;6.934;2023-02-01T05:53:43;6.00;99.90
5174;DHT22;2606;50.934;6.934;2023-02-01T05:56:09;5.90;99.90
5174;DHT22;2606;50.934;6.934;2023-02-01T05:58:34;5.90;99.90
5174;DHT22;2606;50.934;6.934;2023-02-01T06:01:00;5.90;99.90
5174;DHT22;2606;50.934;6.934;2023-02-01T06:03:26;5.90;99.90
5174;DHT22;2606;50.934;6.934;2023-02-01T06:05:52;5.90;99.90
5174;DHT22;2606;50.934;6.934;2023-02-01T06:08:18;5.90;99.90
5174;DHT22;2606;50.934;6.934;2023-02-01T06:10:43;5.90;99.90
5174;DHT22;2606;50.934;6.934;2023-02-01T06:13:09;5.80;99.90
5174;DHT22;2606;50.934;6.934;2023-02-01T06:15:35;5.80;99.90
5174;DHT22;2606;50.934;6.934;2023-02-01T06:18:03;5.80;99.90
5174;DHT22;2606;50.934;6.934;2023-02-01T06:20:28;5.80;99.90
5174;DHT22;2606;50.934;6.934;2023-02-01T06:22:54;5.80;99.90
5174;DHT22;2606;50.934;6.934;2023-02-01T06:25:20;5.80;99.90
5174;DHT22;2606;50.934;6.934;2023-02-01T06:27:46;5.80;99.90
5174;DHT22;2606;50.934;6.934;2023-02-01T06:30:12;5.80;99.90
5174;DHT22;2606;50.934;6.934;2023-02-01T06:32:41;5.80;99.90
5174;DHT22;2606;50.934;6.934;2023-02-01T06:35:10;5.70;99.90
5174;DHT22;2606;50.934;6.934;2023-02-01T06:37:42;5.70;99.90
5174;DHT22;2606;50.934;6.934;2023-02-01T06:40:08;5.70;99.90
5174;DHT22;2606;50.934;6.934;2023-02-01T06:42:34;5.70;99.90
5174;DHT22;2606;50.934;6.934;2023-02-01T06:45:00;5.70;99.90
5174;DHT22;2606;50.934;6.934;2023-02-01T06:47:25;5.70;99.90
5174;DHT22;2606;50.934;6.934;2023-02-01T06:49:51;5.70;99.90
5174;DHT22;2606;50.934;6.934;2023-02-01T06:52:16;5.70;99.90
5174;DHT22;2606;50.934;6.934;2023-02-01T06:54:42;5.70;99.90
5174;DHT22;2606;50.934;6.934;2023-02-01T06:57:07;5.70;99.90
5174;DHT22;2606;50.934;6.934;2023-02-01T06:59:33;5.80;99.90
5174;DHT22;2606;50.934;6.934;2023-02-01T07:01:59;5.80;99.90
5174;DHT22;2606;50.934;6.934;2023-02-01T07:04:24;5.80;99.90
5174;DHT22;2606;50.934;6.934;2023-02-01T07:06:50;5.80;99.90
5174;DHT22;2606;50.934;6.934;2023-02-01T07:09:15;5.80;99.90
5174;DHT22;2606;50.934;6.934;2023-02-01T07:11:41;5.90;99.90
5174;DHT22;2606;50.934;6.934;2023-02-01T07:14:11;5.90;99.90
5174;DHT22;2606;50.934;6.934;2023-02-01T07:16:37;5.90;99.90
5174;DHT22;2606;50.934;6.934;2023-02-01T07:19:04;5.90;99.90
5174;DHT22;2606;50.934;6.934;2023-02-01T07:21:29;5.90;99.90
5174;DHT22;2606;50.934;6.934;2023-02-01T07:23:55;5.90;99.90
5174;DHT22;2606;50.934;6.934;2023-02-01T07:26:21;6.00;99.90
5174;DHT22;2606;50.934;6.934;2023-02-01T07:28:47;6.00;99.90
5174;DHT22;2606;50.934;6.934;2023-02-01T07:31:15;6.00;99.90
5174;DHT22;2606;50.934;6.934;2023-02-01T07:33:41;5.90;99.90
5174;DHT22;2606;50.934;6.934;2023-02-01T07:36:14;5.90;99.90
5174;DHT22;2606;50.934;6.934;2023-02-01T07:38:40;6.00;99.90
5174;DHT22;2606;50.934;6.934;2023-02-01T07:41:05;6.00;99.90
5174;DHT22;2606;50.934;6.934;2023-02-01T07:43:32;6.00;99.90
5174;DHT22;2606;50.934;6.934;2023-02-01T07:45:58;6.00;99.90
5174;DHT22;2606;50.934;6.934;2023-02-01T07:48:25;6.00;99.90
5174;DHT22;2606;50.934;6.934;2023-02-01T07:50:58;6.00;99.90
5174;DHT22;2606;50.934;6.934;2023-02-01T07:53:25;6.00;99.90
5174;DHT22;2606;50.934;6.934;2023-02-01T07:55:50;6.00;99.90
5174;DHT22;2606;50.934;6.934;2023-02-01T07:58:16;6.00;99.90
5174;DHT22;2606;50.934;6.934;2023-02-01T08:00:42;6.00;99.90
5174;DHT22;2606;50.934;6.934;2023-02-01T08:03:26;6.00;99.90
5174;DHT22;2606;50.934;6.934;2023-02-01T08:05:55;6.00;99.90
5174;DHT22;2606;50.934;6.934;2023-02-01T08:08:22;6.00;99.90
5174;DHT22;2606;50.934;6.934;2023-02-01T08:10:47;6.00;99.90
5174;DHT22;2606;50.934;6.934;2023-02-01T08:13:13;6.00;99.90
5174;DHT22;2606;50.934;6.934;2023-02-01T08:15:39;6.20;99.90
5174;DHT22;2606;50.934;6.934;2023-02-01T08:18:04;6.10;99.90
5174;DHT22;2606;50.934;6.934;2023-02-01T08:20:30;6.00;99.90
5174;DHT22;2606;50.934;6.934;2023-02-01T08:22:56;6.10;99.90
5174;DHT22;2606;50.934;6.934;2023-02-01T08:25:22;6.00;99.90
5174;DHT22;2606;50.934;6.934;2023-02-01T08:27:47;6.00;99.90
5174;DHT22;2606;50.934;6.934;2023-02-01T08:30:14;6.00;99.90
5174;DHT22;2606;50.934;6.934;2023-02-01T08:32:39;6.00;99.90
5174;DHT22;2606;50.934;6.934;2023-02-01T08:35:05;6.00;99.90
5174;DHT22;2606;50.934;6.934;2023-02-01T08:37:31;6.00;99.90
5174;DHT22;2606;50.934;6.934;2023-02-01T08:39:58;6.10;99.90
5174;DHT22;2606;50.934;6.934;2023-02-01T08:42:24;6.10;99.90
5174;DHT22;2606;50.934;6.934;2023-02-01T08:45:09;6.00;99.90
5174;DHT22;2606;50.934;6.934;2023-02-01T08:47:35;6.00;99.90
5174;DHT22;2606;50.934;6.934;2023-02-01T08:50:00;6.10;99.90
5174;DHT22;2606;50.934;6.934;2023-02-01T08:52:26;6.10;99.90
5174;DHT22;2606;50.934;6.934;2023-02-01T08:54:52;6.10;99.90
5174;DHT22;2606;50.934;6.934;2023-02-01T08:57:17;6.20;99.90
5174;DHT22;2606;50.934;6.934;2023-02-01T08:59:43;6.20;99.90
5174;DHT22;2606;50.934;6.934;2023-02-01T09:02:15;6.20;99.90
5174;DHT22;2606;50.934;6.934;2023-02-01T09:04:42;6.30;99.90
5174;DHT22;2606;50.934;6.934;2023-02-01T09:07:10;6.40;99.90
5174;DHT22;2606;50.934;6.934;2023-02-01T09:09:38;6.40;99.90
5174;DHT22;2606;50.934;6.934;2023-02-01T09:12:04;6.50;99.90
5174;DHT22;2606;50.934;6.934;2023-02-01T09:14:29;6.60;99.90
5174;DHT22;2606;50.934;6.934;2023-02-01T09:16:55;6.60;99.90
5174;DHT22;2606;50.934;6.934;2023-02-01T09:19:21;6.80;99.90
5174;DHT22;2606;50.934;6.934;2023-02-01T09:21:46;6.80;99.90
5174;DHT22;2606;50.934;6.934;2023-02-01T09:24:13;6.90;99.90
5174;DHT22;2606;50.934;6.934;2023-02-01T09:26:38;7.00;99.90
5174;DHT22;2606;50.934;6.934;2023-02-01T09:29:06;7.10;99.90
5174;DHT22;2606;50.934;6.934;2023-02-01T09:31:39;7.10;99.90
5174;DHT22;2606;50.934;6.934;2023-02-01T09:34:05;7.10;99.90
5174;DHT22;2606;50.934;6.934;2023-02-01T09:36:31;7.10;99.90
5174;DHT22;2606;50.934;6.934;2023-02-01T09:38:57;7.00;99.90
5174;DHT22;2606;50.934;6.934;2023-02-01T09:41:42;7.10;99.90
5174;DHT22;2606;50.934;6.934;2023-02-01T09:47:17;7.10;99.90
5174;DHT22;2606;50.934;6.934;2023-02-01T09:50:08;7.10;99.90
5174;DHT22;2606;50.934;6.934;2023-02-01T09:52:41;7.10;99.90
5174;DHT22;2606;50.934;6.934;2023-02-01T09:55:18;7.20;99.90
5174;DHT22;2606;50.934;6.934;2023-02-01T09:58:07;7.20;99.90
5174;DHT22;2606;50.934;6.934;2023-02-01T10:00:36;7.30;99.90
5174;DHT22;2606;50.934;6.934;2023-02-01T10:03:02;7.30;99.90
5174;DHT22;2606;50.934;6.934;2023-02-01T10:14:40;7.20;99.90
5174;DHT22;2606;50.934;6.934;2023-02-01T10:25:40;7.50;99.90
5174;DHT22;2606;50.934;6.934;2023-02-01T10:28:14;7.60;99.90
5174;DHT22;2606;50.934;6.934;2023-02-01T10:30:45;7.70;99.90
5174;DHT22;2606;50.934;6.934;2023-02-01T10:33:40;7.90;99.90
5174;DHT22;2606;50.934;6.934;2023-02-01T10:38:34;8.00;99.90
5174;DHT22;2606;50.934;6.934;2023-02-01T10:41:03;8.10;99.90
5174;DHT22;2606;50.934;6.934;2023-02-01T10:43:32;8.10;99.90
5174;DHT22;2606;50.934;6.934;2023-02-01T10:45:59;8.20;99.90
5174;DHT22;2606;50.934;6.934;2023-02-01T10:48:25;8.30;99.90
5174;DHT22;2606;50.934;6.934;2023-02-01T10:51:02;8.40;99.90
5174;DHT22;2606;50.934;6.934;2023-02-01T10:56:10;8.50;99.90
5174;DHT22;2606;50.934;6.934;2023-02-01T10:58:42;8.40;99.90
5174;DHT22;2606;50.934;6.934;2023-02-01T11:01:15;8.40;99.90
5174;DHT22;2606;50.934;6.934;2023-02-01T11:03:58;8.40;99.90
5174;DHT22;2606;50.934;6.934;2023-02-01T11:08:53;8.30;99.90
5174;DHT22;2606;50.934;6.934;2023-02-01T11:11:20;8.30;99.90
5174;DHT22;2606;50.934;6.934;2023-02-01T11:14:01;8.30;99.90
5174;DHT22;2606;50.934;6.934;2023-02-01T11:16:38;8.30;99.90
5174;DHT22;2606;50.934;6.934;2023-02-01T11:19:05;8.30;99.90
5174;DHT22;2606;50.934;6.934;2023-02-01T11:21:32;8.30;99.90
5174;DHT22;2606;50.934;6.934;2023-02-01T11:24:44;8.30;99.90
5174;DHT22;2606;50.934;6.934;2023-02-01T11:27:11;8.30;99.90
5174;DHT22;2606;50.934;6.934;2023-02-01T11:29:46;8.30;99.90
5174;DHT22;2606;50.934;6.934;2023-02-01T11:32:14;8.20;99.90
5174;DHT22;2606;50.934;6.934;2023-02-01T11:34:47;8.20;99.90
5174;DHT22;2606;50.934;6.934;2023-02-01T11:37:37;8.20;99.90
5174;DHT22;2606;50.934;6.934;2023-02-01T11:40:38;8.20;99.90
5174;DHT22;2606;50.934;6.934;2023-02-01T11:43:26;8.20;99.90
5174;DHT22;2606;50.934;6.934;2023-02-01T11:46:03;8.20;99.90
5174;DHT22;2606;50.934;6.934;2023-02-01T11:48:32;8.20;99.90
5174;DHT22;2606;50.934;6.934;2023-02-01T11:51:13;8.30;99.90
5174;DHT22;2606;50.934;6.934;2023-02-01T11:54:08;8.30;99.90
5174;DHT22;2606;50.934;6.934;2023-02-01T11:56:44;8.20;99.90
5174;DHT22;2606;50.934;6.934;2023-02-01T12:15:50;8.10;99.90
5174;DHT22;2606;50.934;6.934;2023-02-01T12:24:32;8.00;99.90
5174;DHT22;2606;50.934;6.934;2023-02-01T12:32:41;8.00;99.90
5174;DHT22;2606;50.934;6.934;2023-02-01T12:37:52;8.00;99.90
5174;DHT22;2606;50.934;6.934;2023-02-01T12:45:38;8.10;99.90
5174;DHT22;2606;50.934;6.934;2023-02-01T12:50:49;8.20;99.90
5174;DHT22;2606;50.934;6.934;2023-02-01T12:53:22;8.20;99.90
5174;DHT22;2606;50.934;6.934;2023-02-01T12:56:02;8.30;99.90
5174;DHT22;2606;50.934;6.934;2023-02-01T12:58:49;8.30;99.90
5174;DHT22;2606;50.934;6.934;2023-02-01T13:01:27;8.30;99.90
5174;DHT22;2606;50.934;6.934;2023-02-01T13:09:18;8.10;99.90
5174;DHT22;2606;50.934;6.934;2023-02-01T13:11:46;8.10;99.90
5174;DHT22;2606;50.934;6.934;2023-02-01T13:17:05;8.10;99.90
5174;DHT22;2606;50.934;6.934;2023-02-01T13:19:57;8.00;99.90
5174;DHT22;2606;50.934;6.934;2023-02-01T13:22:43;8.10;99.90
5174;DHT22;2606;50.934;6.934;2023-02-01T13:25:47;8.10;99.90
5174;DHT22;2606;50.934;6.934;2023-02-01T13:28:44;8.00;99.90
5174;DHT22;2606;50.934;6.934;2023-02-01T13:31:42;8.00;99.90
5174;DHT22;2606;50.934;6.934;2023-02-01T13:38:14;8.00;99.90
5174;DHT22;2606;50.934;6.934;2023-02-01T13:42:57;8.00;99.90
5174;DHT22;2606;50.934;6.934;2023-02-01T13:45:29;8.00;99.90
5174;DHT22;2606;50.934;6.934;2023-02-01T13:47:59;8.10;99.90
5174;DHT22;2606;50.934;6.934;2023-02-01T13:53:16;8.00;99.90
5174;DHT22;2606;50.934;6.934;2023-02-01T13:55:51;8.00;99.90
5174;DHT22;2606;50.934;6.934;2023-02-01T13:58:22;8.00;99.90
5174;DHT22;2606;50.934;6.934;2023-02-01T14:03:59;8.00;99.90
5174;DHT22;2606;50.934;6.934;2023-02-01T14:11:40;8.00;99.90
5174;DHT22;2606;50.934;6.934;2023-02-01T14:19:33;8.10;99.90
5174;DHT22;2606;50.934;6.934;2023-02-01T14:22:01;8.10;99.90
5174;DHT22;2606;50.934;6.934;2023-02-01T14:24:54;8.10;99.90
5174;DHT22;2606;50.934;6.934;2023-02-01T14:27:24;8.10;99.90
5174;DHT22;2606;50.934;6.934;2023-02-01T14:29:57;8.10;99.90
5174;DHT22;2606;50.934;6.934;2023-02-01T14:32:30;8.20;99.90
5174;DHT22;2606;50.934;6.934;2023-02-01T14:35:00;8.20;99.90
5174;DHT22;2606;50.934;6.934;2023-02-01T14:37:32;8.20;99.90
5174;DHT22;2606;50.934;6.934;2023-02-01T14:40:04;8.20;99.90
5174;DHT22;2606;50.934;6.934;2023-02-01T14:42:57;8.20;99.90
5174;DHT22;2606;50.934;6.934;2023-02-01T14:53:28;8.20;99.90
5174;DHT22;2606;50.934;6.934;2023-02-01T14:55:59;8.30;99.90
5174;DHT22;2606;50.934;6.934;2023-02-01T15:01:18;8.20;99.90
5174;DHT22;2606;50.934;6.934;2023-02-01T15:04:05;8.30;99.90
5174;DHT22;2606;50.934;6.934;2023-02-01T15:06:38;8.30;99.90
5174;DHT22;2606;50.934;6.934;2023-02-01T15:09:28;8.30;99.90
5174;DHT22;2606;50.934;6.934;2023-02-01T15:15:19;8.30;99.90
5174;DHT22;2606;50.934;6.934;2023-02-01T15:17:58;8.30;99.90
5174;DHT22;2606;50.934;6.934;2023-02-01T15:20:30;8.40;99.90
5174;DHT22;2606;50.934;6.934;2023-02-01T15:23:04;8.40;99.90
5174;DHT22;2606;50.934;6.934;2023-02-01T15:25:35;8.40;99.90
5174;DHT22;2606;50.934;6.934;2023-02-01T15:28:02;8.40;99.90
5174;DHT22;2606;50.934;6.934;2023-02-01T15:30:33;8.40;99.90
5174;DHT22;2606;50.934;6.934;2023-02-01T15:33:17;8.40;99.90
5174;DHT22;2606;50.934;6.934;2023-02-01T15:48:57;8.40;99.90
5174;DHT22;2606;50.934;6.934;2023-02-01T15:51:25;8.40;99.90
5174;DHT22;2606;50.934;6.934;2023-02-01T15:53:59;8.40;99.90
5174;DHT22;2606;50.934;6.934;2023-02-01T15:56:33;8.40;99.90
5174;DHT22;2606;50.934;6.934;2023-02-01T15:59:02;8.40;99.90
5174;DHT22;2606;50.934;6.934;2023-02-01T16:01:28;8.40;99.90
5174;DHT22;2606;50.934;6.934;2023-02-01T16:04:19;8.40;99.90
5174;DHT22;2606;50.934;6.934;2023-02-01T16:06:53;8.30;99.90
5174;DHT22;2606;50.934;6.934;2023-02-01T16:10:26;8.40;99.90
5174;DHT22;2606;50.934;6.934;2023-02-01T16:12:29;8.40;99.90
5174;DHT22;2606;50.934;6.934;2023-02-01T16:14:55;8.40;99.90
5174;DHT22;2606;50.934;6.934;2023-02-01T16:17:21;8.40;99.90
5174;DHT22;2606;50.934;6.934;2023-02-01T16:19:46;8.40;99.90
5174;DHT22;2606;50.934;6.934;2023-02-01T16:22:12;8.40;99.90
5174;DHT22;2606;50.934;6.934;2023-02-01T16:24:38;8.30;99.90
5174;DHT22;2606;50.934;6.934;2023-02-01T16:27:03;8.30;99.90
5174;DHT22;2606;50.934;6.934;2023-02-01T16:29:32;8.30;99.90
5174;DHT22;2606;50.934;6.934;2023-02-01T16:31:58;8.20;99.90
5174;DHT22;2606;50.934;6.934;2023-02-01T16:34:23;8.10;99.90
5174;DHT22;2606;50.934;6.934;2023-02-01T16:36:49;8.10;99.90
5174;DHT22;2606;50.934;6.934;2023-02-01T16:39:21;8.10;99.90
5174;DHT22;2606;50.934;6.934;2023-02-01T16:41:46;8.10;99.90
5174;DHT22;2606;50.934;6.934;2023-02-01T16:44:12;8.00;99.90
5174;DHT22;2606;50.934;6.934;2023-02-01T16:46:43;8.00;99.90
5174;DHT22;2606;50.934;6.934;2023-02-01T16:49:25;8.00;99.90
5174;DHT22;2606;50.934;6.934;2023-02-01T16:51:52;7.90;99.90
5174;DHT22;2606;50.934;6.934;2023-02-01T16:54:20;7.90;99.90
5174;DHT22;2606;50.934;6.934;2023-02-01T16:56:46;7.90;99.90
5174;DHT22;2606;50.934;6.934;2023-02-01T16:59:12;7.80;99.90
5174;DHT22;2606;50.934;6.934;2023-02-01T17:01:39;7.80;99.90
5174;DHT22;2606;50.934;6.934;2023-02-01T17:04:07;7.70;99.90
5174;DHT22;2606;50.934;6.934;2023-02-01T17:06:33;7.70;99.90
5174;DHT22;2606;50.934;6.934;2023-02-01T17:09:02;7.70;99.90
5174;DHT22;2606;50.934;6.934;2023-02-01T17:11:29;7.70;99.90
5174;DHT22;2606;50.934;6.934;2023-02-01T17:14:18;7.60;99.90
5174;DHT22;2606;50.934;6.934;2023-02-01T17:16:45;7.60;99.90
5174;DHT22;2606;50.934;6.934;2023-02-01T17:19:15;7.60;99.90
5174;DHT22;2606;50.934;6.934;2023-02-01T17:21:53;7.60;99.90
5174;DHT22;2606;50.934;6.934;2023-02-01T17:24:22;7.70;99.90
5174;DHT22;2606;50.934;6.934;2023-02-01T17:26:48;7.60;99.90
5174;DHT22;2606;50.934;6.934;2023-02-01T17:29:16;7.60;99.90
5174;DHT22;2606;50.934;6.934;2023-02-01T17:31:44;7.60;99.90
5174;DHT22;2606;50.934;6.934;2023-02-01T17:34:11;7.60;99.90
5174;DHT22;2606;50.934;6.934;2023-02-01T17:36:40;7.60;99.90
5174;DHT22;2606;50.934;6.934;2023-02-01T17:39:07;7.50;99.90
5174;DHT22;2606;50.934;6.934;2023-02-01T17:41:33;7.50;99.90
5174;DHT22;2606;50.934;6.934;2023-02-01T17:44:00;7.50;99.90
5174;DHT22;2606;50.934;6.934;2023-02-01T17:46:26;7.50;99.90
5174;DHT22;2606;50.934;6.934;2023-02-01T17:48:53;7.50;99.90
5174;DHT22;2606;50.934;6.934;2023-02-01T17:51:25;7.50;99.90
5174;DHT22;2606;50.934;6.934;2023-02-01T17:53:54;7.50;99.90
5174;DHT22;2606;50.934;6.934;2023-02-01T17:56:21;7.50;99.90
5174;DHT22;2606;50.934;6.934;2023-02-01T17:58:48;7.50;99.90
5174;DHT22;2606;50.934;6.934;2023-02-01T18:01:18;7.50;99.90
5174;DHT22;2606;50.934;6.934;2023-02-01T18:03:43;7.50;99.90
5174;DHT22;2606;50.934;6.934;2023-02-01T18:06:16;7.40;99.90
5174;DHT22;2606;50.934;6.934;2023-02-01T18:08:42;7.50;99.90
5174;DHT22;2606;50.934;6.934;2023-02-01T18:11:12;7.50;99.90
5174;DHT22;2606;50.934;6.934;2023-02-01T18:13:39;7.50;99.90
5174;DHT22;2606;50.934;6.934;2023-02-01T18:16:05;7.40;99.90
5174;DHT22;2606;50.934;6.934;2023-02-01T18:18:30;7.50;99.90
5174;DHT22;2606;50.934;6.934;2023-02-01T18:20:58;7.50;99.90
5174;DHT22;2606;50.934;6.934;2023-02-01T18:23:24;7.50;99.90
5174;DHT22;2606;50.934;6.934;2023-02-01T18:25:50;7.50;99.90
5174;DHT22;2606;50.934;6.934;2023-02-01T18:28:17;7.50;99.90
5174;DHT22;2606;50.934;6.934;2023-02-01T18:30:46;7.50;99.90
5174;DHT22;2606;50.934;6.934;2023-02-01T18:33:14;7.50;99.90
5174;DHT22;2606;50.934;6.934;2023-02-01T18:35:40;7.50;99.90
5174;DHT22;2606;50.934;6.934;2023-02-01T18:38:06;7.50;99.90
5174;DHT22;2606;50.934;6.934;2023-02-01T18:40:52;7.50;99.90
5174;DHT22;2606;50.934;6.934;2023-02-01T18:43:19;7.50;99.90
5174;DHT22;2606;50.934;6.934;2023-02-01T18:45:46;7.50;99.90
5174;DHT22;2606;50.934;6.934;2023-02-01T18:48:13;7.50;99.90
5174;DHT22;2606;50.934;6.934;2023-02-01T18:50:42;7.50;99.90
5174;DHT22;2606;50.934;6.934;2023-02-01T18:53:16;7.50;99.90
5174;DHT22;2606;50.934;6.934;2023-02-01T18:55:45;7.50;99.90
5174;DHT22;2606;50.934;6.934;2023-02-01T18:58:13;7.50;99.90
5174;DHT22;2606;50.934;6.934;2023-02-01T19:00:38;7.50;99.90
5174;DHT22;2606;50.934;6.934;2023-02-01T19:03:04;7.50;99.90
5174;DHT22;2606;50.934;6.934;2023-02-01T19:05:30;7.60;99.90
5174;DHT22;2606;50.934;6.934;2023-02-01T19:07:56;7.50;99.90
5174;DHT22;2606;50.934;6.934;2023-02-01T19:10:24;7.50;99.90
5174;DHT22;2606;50.934;6.934;2023-02-01T19:12:52;7.60;99.90
5174;DHT22;2606;50.934;6.934;2023-02-01T19:15:20;7.60;99.90
5174;DHT22;2606;50.934;6.934;2023-02-01T19:17:48;7.60;99.90
5174;DHT22;2606;50.934;6.934;2023-02-01T19:20:18;7.60;99.90